sensor_id;sensor_type;location;lat;lon;timestamp;temperature;humidity
55648;DHT22;45266;48.756;9.246;2023-07-09T00:00:59;19.90;99.90
55648;DHT22;45266;48.756;9.246;2023-07-09T00:02:13;19.80;99.90
55648;DHT22;45266;48.756;9.246;2023-07-09T00:03:20;19.80;99.90
55648;DHT22;45266;48.756;9.246;2023-07-09T00:04:26;19.80;99.90
55648;DHT22;45266;48.756;9.246;2023-07-09T00:05:32;19.80;99.90
55648;DHT22;45266;48.756;9.246;2023-07-09T00:06:35;19.80;99.90
55648;DHT22;45266;48.756;9.246;2023-07-09T00:07:37;19.80;99.90
55648;DHT22;45266;48.756;9.246;2023-07-09T00:08:43;19.70;99.90
55648;DHT22;45266;48.756;9.246;2023-07-09T00:09:45;19.70;99.90
55648;DHT22;45266;48.756;9.246;2023-07-09T00:10:49;19.70;99.90
55648;DHT22;45266;48.756;9.246;2023-07-09T00:11:52;19.70;99.90
55648;DHT22;45266;48.756;9.246;2023-07-09T00:12:57;19.70;99.90
55648;DHT22;45266;48.756;9.246;2023-07-09T00:14:07;19.70;99.90
55648;DHT22;45266;48.756;9.246;2023-07-09T00:15:12;19.70;99.90
55648;DHT22;45266;48.756;9.246;2023-07-09T00:16:21;19.70;99.90
55648;DHT22;45266;48.756;9.246;2023-07-09T00:17:30;19.70;99.90
55648;DHT22;45266;48.756;9.246;2023-07-09T00:18:33;19.70;99.90
55648;DHT22;45266;48.756;9.246;2023-07-09T00:19:36;19.70;99.90
55648;DHT22;45266;48.756;9.246;2023-07-09T00:20:38;19.60;99.90
55648;DHT22;45266;48.756;9.246;2023-07-09T00:21:43;19.60;99.90
55648;DHT22;45266;48.756;9.246;2023-07-09T00:22:49;19.60;99.90
55648;DHT22;45266;48.756;9.246;2023-07-09T00:23:54;19.60;99.90
55648;DHT22;45266;48.756;9.246;2023-07-09T00:24:57;19.60;99.90
55648;DHT22;45266;48.756;9.246;2023-07-09T00:26:01;19.50;99.90
55648;DHT22;45266;48.756;9.246;2023-07-09T00:27:12;19.50;99.90
55648;DHT22;45266;48.756;9.246;2023-07-09T00:28:22;19.50;99.90
55648;DHT22;45266;48.756;9.246;2023-07-09T00:29:28;19.50;99.90
55648;DHT22;45266;48.756;9.246;2023-07-09T00:30:33;19.40;99.90
55648;DHT22;45266;48.756;9.246;2023-07-09T00:31:39;19.40;99.90
55648;DHT22;45266;48.756;9.246;2023-07-09T00:32:44;19.40;99.90
55648;DHT22;45266;48.756;9.246;2023-07-09T00:33:48;19.40;99.90
55648;DHT22;45266;48.756;9.246;2023-07-09T00:34:51;19.40;99.90
55648;DHT22;45266;48.756;9.246;2023-07-09T00:35:55;19.40;99.90
55648;DHT22;45266;48.756;9.246;2023-07-09T00:36:57;19.40;99.90
55648;DHT22;45266;48.756;9.246;2023-07-09T00:37:58;19.40;99.90
55648;DHT22;45266;48.756;9.246;2023-07-09T00:39:05;19.30;99.90
55648;DHT22;45266;48.756;9.246;2023-07-09T00:40:21;19.40;99.90
55648;DHT22;45266;48.756;9.246;2023-07-09T00:41:36;19.40;99.90
55648;DHT22;45266;48.756;9.246;2023-07-09T00:42:47;19.30;99.90
55648;DHT22;45266;48.756;9.246;2023-07-09T00:43:53;19.40;99.90
55648;DHT22;45266;48.756;9.246;2023-07-09T00:45:01;19.40;99.90
55648;DHT22;45266;48.756;9.246;2023-07-09T00:47:43;19.30;99.90
55648;DHT22;45266;48.756;9.246;2023-07-09T00:48:59;19.40;99.90
55648;DHT22;45266;48.756;9.246;2023-07-09T00:51:38;19.40;99.90
55648;DHT22;45266;48.756;9.246;2023-07-09T00:52:58;19.30;99.90
55648;DHT22;45266;48.756;9.246;2023-07-09T00:54:45;19.30;99.90
55648;DHT22;45266;48.756;9.246;2023-07-09T00:55:56;19.30;99.90
55648;DHT22;45266;48.756;9.246;2023-07-09T00:57:05;19.20;99.90
55648;DHT22;45266;48.756;9.246;2023-07-09T00:58:11;19.20;99.90
55648;DHT22;45266;48.756;9.246;2023-07-09T00:59:20;19.20;99.90
55648;DHT22;45266;48.756;9.246;2023-07-09T01:00:50;19.20;99.90
55648;DHT22;45266;48.756;9.246;2023-07-09T01:02:00;19.20;99.90
55648;DHT22;45266;48.756;9.246;2023-07-09T01:03:08;19.10;99.90
55648;DHT22;45266;48.756;9.246;2023-07-09T01:04:20;19.10;99.90
55648;DHT22;45266;48.756;9.246;2023-07-09T01:05:29;19.10;99.90
55648;DHT22;45266;48.756;9.246;2023-07-09T01:06:50;19.10;99.90
55648;DHT22;45266;48.756;9.246;2023-07-09T01:08:00;19.10;99.90
55648;DHT22;45266;48.756;9.246;2023-07-09T01:09:08;19.10;99.90
55648;DHT22;45266;48.756;9.246;2023-07-09T01:10:14;19.10;99.90
55648;DHT22;45266;48.756;9.246;2023-07-09T01:11:22;19.10;99.90
55648;DHT22;45266;48.756;9.246;2023-07-09T01:12:28;19.10;99.90
55648;DHT22;45266;48.756;9.246;2023-07-09T01:13:34;19.00;99.90
55648;DHT22;45266;48.756;9.246;2023-07-09T01:14:40;19.10;99.90
55648;DHT22;45266;48.756;9.246;2023-07-09T01:15:49;19.10;99.90
55648;DHT22;45266;48.756;9.246;2023-07-09T01:17:00;19.10;99.90
55648;DHT22;45266;48.756;9.246;2023-07-09T01:18:05;19.10;99.90
55648;DHT22;45266;48.756;9.246;2023-07-09T01:19:17;19.10;99.90
55648;DHT22;45266;48.756;9.246;2023-07-09T01:20:33;19.20;99.90
55648;DHT22;45266;48.756;9.246;2023-07-09T01:21:42;19.10;99.90
55648;DHT22;45266;48.756;9.246;2023-07-09T01:22:52;19.10;99.90
55648;DHT22;45266;48.756;9.246;2023-07-09T01:25:23;19.10;99.90
55648;DHT22;45266;48.756;9.246;2023-07-09T01:25:53;19.10;99.90
55648;DHT22;45266;48.756;9.246;2023-07-09T01:26:56;19.10;99.90
55648;DHT22;45266;48.756;9.246;2023-07-09T01:27:58;19.10;99.90
55648;DHT22;45266;48.756;9.246;2023-07-09T01:29:01;19.10;99.90
55648;DHT22;45266;48.756;9.246;2023-07-09T01:30:29;19.10;99.90
55648;DHT22;45266;48.756;9.246;2023-07-09T01:31:34;19.10;99.90
55648;DHT22;45266;48.756;9.246;2023-07-09T01:32:39;19.00;99.90
55648;DHT22;45266;48.756;9.246;2023-07-09T01:33:48;19.00;99.90
55648;DHT22;45266;48.756;9.246;2023-07-09T01:34:56;19.00;99.90
55648;DHT22;45266;48.756;9.246;2023-07-09T01:36:00;19.00;99.90
55648;DHT22;45266;48.756;9.246;2023-07-09T01:37:03;18.90;99.90
55648;DHT22;45266;48.756;9.246;2023-07-09T01:38:05;18.90;99.90
55648;DHT22;45266;48.756;9.246;2023-07-09T01:39:08;18.90;99.90
55648;DHT22;45266;48.756;9.246;2023-07-09T01:40:13;18.80;99.90
55648;DHT22;45266;48.756;9.246;2023-07-09T01:41:34;18.80;99.90
55648;DHT22;45266;48.756;9.246;2023-07-09T01:42:43;18.80;99.90
55648;DHT22;45266;48.756;9.246;2023-07-09T01:43:48;18.80;99.90
55648;DHT22;45266;48.756;9.246;2023-07-09T01:44:53;18.80;99.90
55648;DHT22;45266;48.756;9.246;2023-07-09T01:45:57;18.80;99.90
55648;DHT22;45266;48.756;9.246;2023-07-09T01:47:02;18.80;99.90
55648;DHT22;45266;48.756;9.246;2023-07-09T01:48:06;18.70;99.90
55648;DHT22;45266;48.756;9.246;2023-07-09T01:49:08;18.70;99.90
55648;DHT22;45266;48.756;9.246;2023-07-09T01:50:11;18.60;99.90
55648;DHT22;45266;48.756;9.246;2023-07-09T01:51:17;18.70;99.90
55648;DHT22;45266;48.756;9.246;2023-07-09T01:52:27;18.70;99.90
55648;DHT22;45266;48.756;9.246;2023-07-09T01:53:30;18.70;99.90
55648;DHT22;45266;48.756;9.246;2023-07-09T01:54:33;18.70;99.90
55648;DHT22;45266;48.756;9.246;2023-07-09T01:55:41;18.60;99.90
55648;DHT22;45266;48.756;9.246;2023-07-09T01:56:43;18.60;99.90
55648;DHT22;45266;48.756;9.246;2023-07-09T01:57:46;18.60;99.90
55648;DHT22;45266;48.756;9.246;2023-07-09T01:58:49;18.50;99.90
55648;DHT22;45266;48.756;9.246;2023-07-09T01:59:55;18.50;99.90
55648;DHT22;45266;48.756;9.246;2023-07-09T02:01:03;18.50;99.90
55648;DHT22;45266;48.756;9.246;2023-07-09T02:02:13;18.50;99.90
55648;DHT22;45266;48.756;9.246;2023-07-09T02:03:26;18.50;99.90
55648;DHT22;45266;48.756;9.246;2023-07-09T02:04:36;18.50;99.90
55648;DHT22;45266;48.756;9.246;2023-07-09T02:05:43;18.50;99.90
55648;DHT22;45266;48.756;9.246;2023-07-09T02:06:45;18.50;99.90
55648;DHT22;45266;48.756;9.246;2023-07-09T02:07:48;18.40;99.90
55648;DHT22;45266;48.756;9.246;2023-07-09T02:08:50;18.40;99.90
55648;DHT22;45266;48.756;9.246;2023-07-09T02:09:53;18.30;99.90
55648;DHT22;45266;48.756;9.246;2023-07-09T02:10:55;18.30;99.90
55648;DHT22;45266;48.756;9.246;2023-07-09T02:11:57;18.30;99.90
55648;DHT22;45266;48.756;9.246;2023-07-09T02:12:59;18.30;99.90
55648;DHT22;45266;48.756;9.246;2023-07-09T02:14:05;18.30;99.90
55648;DHT22;45266;48.756;9.246;2023-07-09T02:15:13;18.20;99.90
55648;DHT22;45266;48.756;9.246;2023-07-09T02:16:20;18.20;99.90
55648;DHT22;45266;48.756;9.246;2023-07-09T02:17:22;18.20;99.90
55648;DHT22;45266;48.756;9.246;2023-07-09T02:18:27;18.20;99.90
55648;DHT22;45266;48.756;9.246;2023-07-09T02:19:37;18.20;99.90
55648;DHT22;45266;48.756;9.246;2023-07-09T02:20:46;18.20;99.90
55648;DHT22;45266;48.756;9.246;2023-07-09T02:21:50;18.20;99.90
55648;DHT22;45266;48.756;9.246;2023-07-09T02:22:59;18.20;99.90
55648;DHT22;45266;48.756;9.246;2023-07-09T02:24:09;18.20;99.90
55648;DHT22;45266;48.756;9.246;2023-07-09T02:25:22;18.20;99.90
55648;DHT22;45266;48.756;9.246;2023-07-09T02:26:29;18.20;99.90
55648;DHT22;45266;48.756;9.246;2023-07-09T02:27:35;18.20;99.90
55648;DHT22;45266;48.756;9.246;2023-07-09T02:28:42;18.20;99.90
55648;DHT22;45266;48.756;9.246;2023-07-09T02:29:47;18.20;99.90
55648;DHT22;45266;48.756;9.246;2023-07-09T02:30:50;18.10;99.90
55648;DHT22;45266;48.756;9.246;2023-07-09T02:31:55;18.10;99.90
55648;DHT22;45266;48.756;9.246;2023-07-09T02:32:57;18.10;99.90
55648;DHT22;45266;48.756;9.246;2023-07-09T02:34:00;18.10;99.90
55648;DHT22;45266;48.756;9.246;2023-07-09T02:35:03;18.10;99.90
55648;DHT22;45266;48.756;9.246;2023-07-09T02:36:06;18.00;99.90
55648;DHT22;45266;48.756;9.246;2023-07-09T02:37:08;18.00;99.90
55648;DHT22;45266;48.756;9.246;2023-07-09T02:38:11;18.00;99.90
55648;DHT22;45266;48.756;9.246;2023-07-09T02:39:13;18.00;99.90
55648;DHT22;45266;48.756;9.246;2023-07-09T02:40:16;18.00;99.90
55648;DHT22;45266;48.756;9.246;2023-07-09T02:41:18;18.00;99.90
55648;DHT22;45266;48.756;9.246;2023-07-09T02:42:22;18.00;99.90
55648;DHT22;45266;48.756;9.246;2023-07-09T02:43:25;18.10;99.90
55648;DHT22;45266;48.756;9.246;2023-07-09T02:44:27;18.10;99.90
55648;DHT22;45266;48.756;9.246;2023-07-09T02:45:29;18.10;99.90
55648;DHT22;45266;48.756;9.246;2023-07-09T02:46:31;18.10;99.90
55648;DHT22;45266;48.756;9.246;2023-07-09T02:47:33;18.10;99.90
55648;DHT22;45266;48.756;9.246;2023-07-09T02:48:35;18.00;99.90
55648;DHT22;45266;48.756;9.246;2023-07-09T02:49:41;18.00;99.90
55648;DHT22;45266;48.756;9.246;2023-07-09T02:50:51;18.00;99.90
55648;DHT22;45266;48.756;9.246;2023-07-09T02:51:58;17.90;99.90
55648;DHT22;45266;48.756;9.246;2023-07-09T02:53:02;17.90;99.90
55648;DHT22;45266;48.756;9.246;2023-07-09T02:54:07;17.90;99.90
55648;DHT22;45266;48.756;9.246;2023-07-09T02:55:12;17.90;99.90
55648;DHT22;45266;48.756;9.246;2023-07-09T02:56:23;17.90;99.90
55648;DHT22;45266;48.756;9.246;2023-07-09T02:57:36;17.90;99.90
55648;DHT22;45266;48.756;9.246;2023-07-09T02:58:49;17.90;99.90
55648;DHT22;45266;48.756;9.246;2023-07-09T02:59:59;17.90;99.90
55648;DHT22;45266;48.756;9.246;2023-07-09T03:01:07;17.80;99.90
55648;DHT22;45266;48.756;9.246;2023-07-09T03:02:15;17.80;99.90
55648;DHT22;45266;48.756;9.246;2023-07-09T03:03:17;17.80;99.90
55648;DHT22;45266;48.756;9.246;2023-07-09T03:04:20;17.80;99.90
55648;DHT22;45266;48.756;9.246;2023-07-09T03:05:25;17.80;99.90
55648;DHT22;45266;48.756;9.246;2023-07-09T03:06:33;17.70;99.90
55648;DHT22;45266;48.756;9.246;2023-07-09T03:07:37;17.70;99.90
55648;DHT22;45266;48.756;9.246;2023-07-09T03:08:42;17.70;99.90
55648;DHT22;45266;48.756;9.246;2023-07-09T03:09:45;17.70;99.90
55648;DHT22;45266;48.756;9.246;2023-07-09T03:10:47;17.60;99.90
55648;DHT22;45266;48.756;9.246;2023-07-09T03:11:49;17.60;99.90
55648;DHT22;45266;48.756;9.246;2023-07-09T03:12:51;17.60;99.90
55648;DHT22;45266;48.756;9.246;2023-07-09T03:13:53;17.60;99.90
55648;DHT22;45266;48.756;9.246;2023-07-09T03:14:55;17.60;99.90
55648;DHT22;45266;48.756;9.246;2023-07-09T03:15:57;17.60;99.90
55648;DHT22;45266;48.756;9.246;2023-07-09T03:17:00;17.60;99.90
55648;DHT22;45266;48.756;9.246;2023-07-09T03:18:02;17.60;99.90
55648;DHT22;45266;48.756;9.246;2023-07-09T03:19:04;17.60;99.90
55648;DHT22;45266;48.756;9.246;2023-07-09T03:20:07;17.50;99.90
55648;DHT22;45266;48.756;9.246;2023-07-09T03:21:11;17.50;99.90
55648;DHT22;45266;48.756;9.246;2023-07-09T03:22:16;17.50;99.90
55648;DHT22;45266;48.756;9.246;2023-07-09T03:23:20;17.50;99.90
55648;DHT22;45266;48.756;9.246;2023-07-09T03:24:22;17.50;99.90
55648;DHT22;45266;48.756;9.246;2023-07-09T03:25:24;17.50;99.90
55648;DHT22;45266;48.756;9.246;2023-07-09T03:26:26;17.50;99.90
55648;DHT22;45266;48.756;9.246;2023-07-09T03:27:29;17.50;99.90
55648;DHT22;45266;48.756;9.246;2023-07-09T03:28:32;17.50;99.90
55648;DHT22;45266;48.756;9.246;2023-07-09T03:29:35;17.50;99.90
55648;DHT22;45266;48.756;9.246;2023-07-09T03:30:45;17.50;99.90
55648;DHT22;45266;48.756;9.246;2023-07-09T03:31:50;17.50;99.90
55648;DHT22;45266;48.756;9.246;2023-07-09T03:33:00;17.50;99.90
55648;DHT22;45266;48.756;9.246;2023-07-09T03:34:12;17.50;99.90
55648;DHT22;45266;48.756;9.246;2023-07-09T03:35:22;17.40;99.90
55648;DHT22;45266;48.756;9.246;2023-07-09T03:36:31;17.40;99.90
55648;DHT22;45266;48.756;9.246;2023-07-09T03:37:39;17.40;99.90
55648;DHT22;45266;48.756;9.246;2023-07-09T03:38:43;17.40;99.90
55648;DHT22;45266;48.756;9.246;2023-07-09T03:39:45;17.40;99.90
55648;DHT22;45266;48.756;9.246;2023-07-09T03:40:57;17.40;99.90
55648;DHT22;45266;48.756;9.246;2023-07-09T03:42:06;17.40;99.90
55648;DHT22;45266;48.756;9.246;2023-07-09T03:43:13;17.40;99.90
55648;DHT22;45266;48.756;9.246;2023-07-09T03:44:15;17.40;99.90
55648;DHT22;45266;48.756;9.246;2023-07-09T03:45:17;17.40;99.90
55648;DHT22;45266;48.756;9.246;2023-07-09T03:46:20;17.40;99.90
55648;DHT22;45266;48.756;9.246;2023-07-09T03:47:22;17.40;99.90
55648;DHT22;45266;48.756;9.246;2023-07-09T03:48:25;17.50;99.90
55648;DHT22;45266;48.756;9.246;2023-07-09T03:49:27;17.50;99.90
55648;DHT22;45266;48.756;9.246;2023-07-09T03:50:29;17.40;99.90
55648;DHT22;45266;48.756;9.246;2023-07-09T03:51:32;17.50;99.90
55648;DHT22;45266;48.756;9.246;2023-07-09T03:52:35;17.40;99.90
55648;DHT22;45266;48.756;9.246;2023-07-09T03:53:39;17.40;99.90
55648;DHT22;45266;48.756;9.246;2023-07-09T03:54:44;17.40;99.90
55648;DHT22;45266;48.756;9.246;2023-07-09T03:55:53;17.40;99.90
55648;DHT22;45266;48.756;9.246;2023-07-09T03:56:57;17.40;99.90
55648;DHT22;45266;48.756;9.246;2023-07-09T03:58:01;17.40;99.90
55648;DHT22;45266;48.756;9.246;2023-07-09T03:59:09;17.30;99.90
55648;DHT22;45266;48.756;9.246;2023-07-09T04:00:22;17.40;99.90
55648;DHT22;45266;48.756;9.246;2023-07-09T04:01:33;17.40;99.90
55648;DHT22;45266;48.756;9.246;2023-07-09T04:02:41;17.40;99.90
55648;DHT22;45266;48.756;9.246;2023-07-09T04:03:51;17.40;99.90
55648;DHT22;45266;48.756;9.246;2023-07-09T04:04:58;17.40;99.90
55648;DHT22;45266;48.756;9.246;2023-07-09T04:06:05;17.40;99.90
55648;DHT22;45266;48.756;9.246;2023-07-09T04:07:08;17.40;99.90
55648;DHT22;45266;48.756;9.246;2023-07-09T04:08:11;17.50;99.90
55648;DHT22;45266;48.756;9.246;2023-07-09T04:09:16;17.40;99.90
55648;DHT22;45266;48.756;9.246;2023-07-09T04:10:25;17.40;99.90
55648;DHT22;45266;48.756;9.246;2023-07-09T04:11:31;17.50;99.90
55648;DHT22;45266;48.756;9.246;2023-07-09T04:12:39;17.50;99.90
55648;DHT22;45266;48.756;9.246;2023-07-09T04:13:51;17.50;99.90
55648;DHT22;45266;48.756;9.246;2023-07-09T04:14:59;17.50;99.90
55648;DHT22;45266;48.756;9.246;2023-07-09T04:16:02;17.50;99.90
55648;DHT22;45266;48.756;9.246;2023-07-09T04:17:08;17.60;99.90
55648;DHT22;45266;48.756;9.246;2023-07-09T04:18:13;17.60;99.90
55648;DHT22;45266;48.756;9.246;2023-07-09T04:19:19;17.60;99.90
55648;DHT22;45266;48.756;9.246;2023-07-09T04:20:22;17.60;99.90
55648;DHT22;45266;48.756;9.246;2023-07-09T04:21:25;17.60;99.90
55648;DHT22;45266;48.756;9.246;2023-07-09T04:22:27;17.70;99.90
55648;DHT22;45266;48.756;9.246;2023-07-09T04:23:29;17.70;99.90
55648;DHT22;45266;48.756;9.246;2023-07-09T04:24:32;17.70;99.90
55648;DHT22;45266;48.756;9.246;2023-07-09T04:25:36;17.70;99.90
55648;DHT22;45266;48.756;9.246;2023-07-09T04:26:45;17.80;99.90
55648;DHT22;45266;48.756;9.246;2023-07-09T04:27:51;17.80;99.90
55648;DHT22;45266;48.756;9.246;2023-07-09T04:28:55;17.80;99.90
55648;DHT22;45266;48.756;9.246;2023-07-09T04:29:57;17.80;99.90
55648;DHT22;45266;48.756;9.246;2023-07-09T04:30:59;17.90;99.90
55648;DHT22;45266;48.756;9.246;2023-07-09T04:32:12;17.90;99.90
55648;DHT22;45266;48.756;9.246;2023-07-09T04:33:17;17.90;99.90
55648;DHT22;45266;48.756;9.246;2023-07-09T04:34:19;17.90;99.90
55648;DHT22;45266;48.756;9.246;2023-07-09T04:35:21;18.00;99.90
55648;DHT22;45266;48.756;9.246;2023-07-09T04:36:24;18.00;99.90
55648;DHT22;45266;48.756;9.246;2023-07-09T04:37:27;18.00;99.90
55648;DHT22;45266;48.756;9.246;2023-07-09T04:38:29;18.00;99.90
55648;DHT22;45266;48.756;9.246;2023-07-09T04:39:36;18.10;99.90
55648;DHT22;45266;48.756;9.246;2023-07-09T04:40:43;18.10;99.90
55648;DHT22;45266;48.756;9.246;2023-07-09T04:41:48;18.20;99.90
55648;DHT22;45266;48.756;9.246;2023-07-09T04:42:50;18.20;99.90
55648;DHT22;45266;48.756;9.246;2023-07-09T04:43:55;18.20;99.90
55648;DHT22;45266;48.756;9.246;2023-07-09T04:45:05;18.20;99.90
55648;DHT22;45266;48.756;9.246;2023-07-09T04:46:11;18.20;99.90
55648;DHT22;45266;48.756;9.246;2023-07-09T04:47:16;18.30;99.90
55648;DHT22;45266;48.756;9.246;2023-07-09T04:48:18;18.30;99.90
55648;DHT22;45266;48.756;9.246;2023-07-09T04:49:20;18.30;99.90
55648;DHT22;45266;48.756;9.246;2023-07-09T04:50:22;18.30;99.90
55648;DHT22;45266;48.756;9.246;2023-07-09T04:51:24;18.30;99.90
55648;DHT22;45266;48.756;9.246;2023-07-09T04:52:26;18.40;99.90
55648;DHT22;45266;48.756;9.246;2023-07-09T04:53:28;18.40;99.90
55648;DHT22;45266;48.756;9.246;2023-07-09T04:54:31;18.40;99.90
55648;DHT22;45266;48.756;9.246;2023-07-09T04:55:36;18.40;99.90
55648;DHT22;45266;48.756;9.246;2023-07-09T04:56:38;18.40;99.90
55648;DHT22;45266;48.756;9.246;2023-07-09T04:57:41;18.50;99.90
55648;DHT22;45266;48.756;9.246;2023-07-09T04:58:45;18.60;99.90
55648;DHT22;45266;48.756;9.246;2023-07-09T04:59:50;18.60;99.90
55648;DHT22;45266;48.756;9.246;2023-07-09T05:00:57;18.60;99.90
55648;DHT22;45266;48.756;9.246;2023-07-09T05:02:00;18.70;99.90
55648;DHT22;45266;48.756;9.246;2023-07-09T05:03:02;18.70;99.90
55648;DHT22;45266;48.756;9.246;2023-07-09T05:04:05;18.80;99.90
55648;DHT22;45266;48.756;9.246;2023-07-09T05:05:07;18.80;99.90
55648;DHT22;45266;48.756;9.246;2023-07-09T05:06:09;18.80;99.90
55648;DHT22;45266;48.756;9.246;2023-07-09T05:07:11;18.90;99.90
55648;DHT22;45266;48.756;9.246;2023-07-09T05:08:14;18.90;99.90
55648;DHT22;45266;48.756;9.246;2023-07-09T05:09:17;19.00;99.90
55648;DHT22;45266;48.756;9.246;2023-07-09T05:10:22;19.10;99.90
55648;DHT22;45266;48.756;9.246;2023-07-09T05:11:36;19.10;99.90
55648;DHT22;45266;48.756;9.246;2023-07-09T05:12:52;19.20;99.90
55648;DHT22;45266;48.756;9.246;2023-07-09T05:13:57;19.30;99.90
55648;DHT22;45266;48.756;9.246;2023-07-09T05:14:59;19.40;99.90
55648;DHT22;45266;48.756;9.246;2023-07-09T05:16:01;19.50;99.90
55648;DHT22;45266;48.756;9.246;2023-07-09T05:17:04;19.50;99.90
55648;DHT22;45266;48.756;9.246;2023-07-09T05:18:07;19.60;99.90
55648;DHT22;45266;48.756;9.246;2023-07-09T05:19:10;19.70;99.90
55648;DHT22;45266;48.756;9.246;2023-07-09T05:20:13;19.80;99.90
55648;DHT22;45266;48.756;9.246;2023-07-09T05:21:16;19.80;99.90
55648;DHT22;45266;48.756;9.246;2023-07-09T05:22:20;19.90;99.90
55648;DHT22;45266;48.756;9.246;2023-07-09T05:23:25;20.00;99.90
55648;DHT22;45266;48.756;9.246;2023-07-09T05:24:29;20.10;99.90
55648;DHT22;45266;48.756;9.246;2023-07-09T05:25:33;20.20;99.90
55648;DHT22;45266;48.756;9.246;2023-07-09T05:26:37;20.20;99.90
55648;DHT22;45266;48.756;9.246;2023-07-09T05:27:44;20.30;99.90
55648;DHT22;45266;48.756;9.246;2023-07-09T05:28:55;20.40;99.90
55648;DHT22;45266;48.756;9.246;2023-07-09T05:30:08;20.50;99.90
55648;DHT22;45266;48.756;9.246;2023-07-09T05:31:19;20.60;99.90
55648;DHT22;45266;48.756;9.246;2023-07-09T05:32:27;20.70;99.90
55648;DHT22;45266;48.756;9.246;2023-07-09T05:33:34;20.80;99.90
55648;DHT22;45266;48.756;9.246;2023-07-09T05:34:44;20.90;99.90
55648;DHT22;45266;48.756;9.246;2023-07-09T05:35:51;20.90;99.90
55648;DHT22;45266;48.756;9.246;2023-07-09T05:36:57;21.00;99.90
55648;DHT22;45266;48.756;9.246;2023-07-09T05:38:08;21.00;99.90
55648;DHT22;45266;48.756;9.246;2023-07-09T05:39:13;21.10;99.90
55648;DHT22;45266;48.756;9.246;2023-07-09T05:40:21;21.20;99.90
55648;DHT22;45266;48.756;9.246;2023-07-09T05:41:28;21.30;99.90
55648;DHT22;45266;48.756;9.246;2023-07-09T05:42:34;21.30;99.90
55648;DHT22;45266;48.756;9.246;2023-07-09T05:43:39;21.30;99.90
55648;DHT22;45266;48.756;9.246;2023-07-09T05:44:42;21.40;99.90
55648;DHT22;45266;48.756;9.246;2023-07-09T05:45:44;21.50;99.90
55648;DHT22;45266;48.756;9.246;2023-07-09T05:46:46;21.50;99.90
55648;DHT22;45266;48.756;9.246;2023-07-09T05:47:49;21.60;99.90
55648;DHT22;45266;48.756;9.246;2023-07-09T05:48:53;21.60;99.90
55648;DHT22;45266;48.756;9.246;2023-07-09T05:50:00;21.60;99.90
55648;DHT22;45266;48.756;9.246;2023-07-09T05:51:06;21.70;99.90
55648;DHT22;45266;48.756;9.246;2023-07-09T05:52:14;21.80;99.90
55648;DHT22;45266;48.756;9.246;2023-07-09T05:53:22;21.80;99.90
55648;DHT22;45266;48.756;9.246;2023-07-09T05:54:35;21.90;99.90
55648;DHT22;45266;48.756;9.246;2023-07-09T05:55:44;21.90;99.90
55648;DHT22;45266;48.756;9.246;2023-07-09T05:56:50;22.00;99.90
55648;DHT22;45266;48.756;9.246;2023-07-09T05:57:56;22.00;99.90
55648;DHT22;45266;48.756;9.246;2023-07-09T05:59:02;22.10;99.90
55648;DHT22;45266;48.756;9.246;2023-07-09T06:00:06;22.10;99.90
55648;DHT22;45266;48.756;9.246;2023-07-09T06:01:15;22.20;99.90
55648;DHT22;45266;48.756;9.246;2023-07-09T06:02:21;22.30;99.90
55648;DHT22;45266;48.756;9.246;2023-07-09T06:03:27;22.30;99.90
55648;DHT22;45266;48.756;9.246;2023-07-09T06:04:30;22.40;99.90
55648;DHT22;45266;48.756;9.246;2023-07-09T06:05:36;22.50;99.90
55648;DHT22;45266;48.756;9.246;2023-07-09T06:06:44;22.50;99.90
55648;DHT22;45266;48.756;9.246;2023-07-09T06:07:57;22.60;99.90
55648;DHT22;45266;48.756;9.246;2023-07-09T06:09:11;22.60;99.90
55648;DHT22;45266;48.756;9.246;2023-07-09T06:10:19;22.70;99.90
55648;DHT22;45266;48.756;9.246;2023-07-09T06:11:29;22.70;99.90
55648;DHT22;45266;48.756;9.246;2023-07-09T06:12:34;22.80;99.90
55648;DHT22;45266;48.756;9.246;2023-07-09T06:13:40;22.80;99.90
55648;DHT22;45266;48.756;9.246;2023-07-09T06:14:45;22.90;99.90
55648;DHT22;45266;48.756;9.246;2023-07-09T06:15:51;22.90;99.90
55648;DHT22;45266;48.756;9.246;2023-07-09T06:16:56;23.00;99.90
55648;DHT22;45266;48.756;9.246;2023-07-09T06:18:00;23.00;99.90
55648;DHT22;45266;48.756;9.246;2023-07-09T06:19:02;23.10;99.90
55648;DHT22;45266;48.756;9.246;2023-07-09T06:20:06;23.20;99.90
55648;DHT22;45266;48.756;9.246;2023-07-09T06:21:11;23.20;99.90
55648;DHT22;45266;48.756;9.246;2023-07-09T06:22:21;23.30;99.90
55648;DHT22;45266;48.756;9.246;2023-07-09T06:23:28;23.30;99.90
55648;DHT22;45266;48.756;9.246;2023-07-09T06:24:33;23.40;99.90
55648;DHT22;45266;48.756;9.246;2023-07-09T06:25:37;23.50;99.40
55648;DHT22;45266;48.756;9.246;2023-07-09T06:26:44;23.50;98.90
55648;DHT22;45266;48.756;9.246;2023-07-09T06:28:00;23.60;97.40
55648;DHT22;45266;48.756;9.246;2023-07-09T06:29:07;23.70;97.30
55648;DHT22;45266;48.756;9.246;2023-07-09T06:30:12;23.70;97.30
55648;DHT22;45266;48.756;9.246;2023-07-09T06:31:16;23.80;97.20
55648;DHT22;45266;48.756;9.246;2023-07-09T06:32:18;23.90;95.60
55648;DHT22;45266;48.756;9.246;2023-07-09T06:33:26;23.90;94.60
55648;DHT22;45266;48.756;9.246;2023-07-09T06:34:33;24.00;94.60
55648;DHT22;45266;48.756;9.246;2023-07-09T06:35:36;24.00;93.80
55648;DHT22;45266;48.756;9.246;2023-07-09T06:36:39;24.10;93.60
55648;DHT22;45266;48.756;9.246;2023-07-09T06:37:46;24.10;93.70
55648;DHT22;45266;48.756;9.246;2023-07-09T06:38:49;24.20;92.80
55648;DHT22;45266;48.756;9.246;2023-07-09T06:39:51;24.20;92.40
55648;DHT22;45266;48.756;9.246;2023-07-09T06:40:55;24.30;91.90
55648;DHT22;45266;48.756;9.246;2023-07-09T06:42:02;24.30;91.90
55648;DHT22;45266;48.756;9.246;2023-07-09T06:43:06;24.30;91.30
55648;DHT22;45266;48.756;9.246;2023-07-09T06:44:09;24.40;91.20
55648;DHT22;45266;48.756;9.246;2023-07-09T06:45:12;24.40;90.90
55648;DHT22;45266;48.756;9.246;2023-07-09T06:46:18;24.40;90.50
55648;DHT22;45266;48.756;9.246;2023-07-09T06:47:20;24.40;90.70
55648;DHT22;45266;48.756;9.246;2023-07-09T06:48:24;24.50;90.40
55648;DHT22;45266;48.756;9.246;2023-07-09T06:49:28;24.50;90.80
55648;DHT22;45266;48.756;9.246;2023-07-09T06:50:36;24.60;89.60
55648;DHT22;45266;48.756;9.246;2023-07-09T06:51:47;24.70;90.10
55648;DHT22;45266;48.756;9.246;2023-07-09T06:52:54;24.70;88.70
55648;DHT22;45266;48.756;9.246;2023-07-09T06:54:05;24.80;89.10
55648;DHT22;45266;48.756;9.246;2023-07-09T06:55:11;24.90;87.80
55648;DHT22;45266;48.756;9.246;2023-07-09T06:56:14;25.00;87.00
55648;DHT22;45266;48.756;9.246;2023-07-09T06:57:18;25.00;87.00
55648;DHT22;45266;48.756;9.246;2023-07-09T06:58:27;25.00;85.90
55648;DHT22;45266;48.756;9.246;2023-07-09T06:59:31;25.10;85.30
55648;DHT22;45266;48.756;9.246;2023-07-09T07:00:36;25.10;84.90